Time;durP1;ratioP1;P1;durP2;ratioP2;P2;SDS_P1;SDS_P2;PMS_P1;PMS_P2;Temp;Humidity;BMP_temperature;BMP_pressure;BME280_temperature;BME280_humidity;BME280_pressure;Samples;Min_cycle;Max_cycle;Signal;HPM_P1;HPM_P2
2022/04/09 00:02:15;;;;;;;12.47;6.77;;;;;;;11.41;85.29;98707.14;1457510;89;21478;-86
2022/04/09 00:04:42;;;;;;;16.30;7.00;;;;;;;11.35;86.23;98702.63;1460288;89;22483;-88
2022/04/09 00:07:09;;;;;;;10.87;7.13;;;;;;;11.28;87.72;98699.44;1470341;89;21411;-86
2022/04/09 00:09:36;;;;;;;12.33;7.33;;;;;;;11.26;87.24;98701.97;1463295;89;22313;-87
2022/04/09 00:12:03;;;;;;;10.37;7.47;;;;;;;11.24;88.19;98698.17;1457167;89;21528;-88
2022/04/09 00:14:31;;;;;;;18.57;10.00;;;;;;;11.21;88.71;98702.53;1464431;89;21523;-87
2022/04/09 00:16:58;;;;;;;14.00;8.07;;;;;;;11.16;89.30;98707.59;1453823;89;21390;-88
2022/04/09 00:19:25;;;;;;;12.93;7.03;;;;;;;11.15;89.26;98717.88;1473833;89;21464;-87
2022/04/09 00:21:52;;;;;;;12.10;8.33;;;;;;;11.14;90.62;98729.48;1467964;89;21323;-85
2022/04/09 00:24:19;;;;;;;11.73;6.87;;;;;;;11.14;90.19;98738.76;1464545;89;21368;-86
2022/04/09 00:26:46;;;;;;;9.20;7.20;;;;;;;11.13;88.36;98732.31;1458220;89;21323;-84
2022/04/09 00:29:13;;;;;;;12.00;7.63;;;;;;;11.13;89.94;98726.51;1461366;89;21526;-84
2022/04/09 00:31:39;;;;;;;15.40;7.40;;;;;;;11.14;90.11;98736.11;1462135;89;21345;-85
2022/04/09 00:34:06;;;;;;;9.97;6.73;;;;;;;11.13;90.79;98743.72;1455616;89;21442;-87
2022/04/09 00:36:33;;;;;;;16.20;6.53;;;;;;;11.14;91.36;98727.35;1461202;89;21548;-86
2022/04/09 00:39:00;;;;;;;10.53;7.10;;;;;;;11.12;92.80;98727.53;1465076;89;22350;-88
2022/04/09 00:41:27;;;;;;;13.20;6.23;;;;;;;11.12;93.57;98730.69;1464852;89;21507;-86
2022/04/09 00:43:54;;;;;;;10.17;5.67;;;;;;;11.10;93.88;98728.22;1460689;89;21373;-86
2022/04/09 00:46:21;;;;;;;8.47;4.70;;;;;;;11.06;93.21;98725.14;1459304;89;21441;-86
2022/04/09 00:48:49;;;;;;;13.13;4.87;;;;;;;11.06;92.57;98720.36;1458080;89;22291;-84
2022/04/09 00:51:16;;;;;;;11.20;4.73;;;;;;;11.06;92.01;98708.45;1458647;89;21375;-84
2022/04/09 00:53:46;;;;;;;6.00;3.97;;;;;;;11.08;90.81;98701.14;1461725;89;21530;-85
2022/04/09 00:56:18;;;;;;;6.70;4.33;;;;;;;11.05;91.72;98692.27;1460035;89;21374;-85
2022/04/09 00:58:55;;;;;;;9.57;4.73;;;;;;;11.04;91.45;98690.61;1443022;89;21521;-85
2022/04/09 01:01:26;;;;;;;6.80;4.00;;;;;;;11.05;89.72;98685.64;1463384;89;21576;-86
2022/04/09 01:03:54;;;;;;;6.40;3.50;;;;;;;11.04;89.22;98674.72;1459564;89;23226;-85
2022/04/09 01:06:21;;;;;;;4.87;3.33;;;;;;;11.03;88.89;98666.48;1464393;89;21346;-85
2022/04/09 01:08:48;;;;;;;3.30;2.10;;;;;;;11.01;88.59;98628.78;1464200;89;21382;-86
2022/04/09 01:11:15;;;;;;;3.67;1.87;;;;;;;11.03;88.18;98610.38;1457737;89;21338;-86
2022/04/09 01:13:44;;;;;;;3.23;2.23;;;;;;;11.05;88.14;98592.98;1457537;89;21463;-87
2022/04/09 01:16:11;;;;;;;4.23;2.30;;;;;;;11.07;87.53;98585.13;1460973;89;22416;-86
2022/04/09 01:18:41;;;;;;;6.33;3.07;;;;;;;11.04;89.31;98564.86;1455200;89;21922;-85
2022/04/09 01:21:08;;;;;;;5.27;3.13;;;;;;;11.01;89.73;98519.74;1455049;89;21523;-85
2022/04/09 01:23:35;;;;;;;8.17;3.60;;;;;;;10.99;88.69;98517.82;1464130;89;22395;-86
2022/04/09 01:26:05;;;;;;;5.67;3.33;;;;;;;10.98;89.08;98492.86;1462883;89;21419;-87
2022/04/09 01:28:33;;;;;;;4.87;2.95;;;;;;;10.96;88.86;98480.31;1453685;89;21354;-86
2022/04/09 01:31:00;;;;;;;4.70;2.50;;;;;;;10.96;88.08;98494.39;1466267;89;21390;-86
2022/04/09 01:33:27;;;;;;;7.07;3.00;;;;;;;10.93;88.54;98489.98;1466584;89;21389;-86
2022/04/09 01:35:54;;;;;;;5.83;3.40;;;;;;;10.93;88.81;98479.39;1462060;89;21478;-86
2022/04/09 01:38:21;;;;;;;8.93;4.17;;;;;;;10.94;88.64;98475.23;1458892;89;21359;-86
2022/04/09 01:40:49;;;;;;;8.40;4.97;;;;;;;10.93;89.36;98482.04;1446797;89;21552;-86
2022/04/09 01:43:17;;;;;;;11.37;5.03;;;;;;;10.89;90.45;98490.88;1467133;89;21396;-88
2022/04/09 01:45:44;;;;;;;7.50;5.40;;;;;;;10.84;91.50;98494.11;1460053;89;21766;-87
2022/04/09 01:48:11;;;;;;;8.17;5.60;;;;;;;10.83;90.94;98499.10;1450546;90;21552;-86
2022/04/09 01:50:39;;;;;;;14.30;5.77;;;;;;;10.81;90.76;98500.30;1450307;90;21904;-85
2022/04/09 01:53:06;;;;;;;7.03;4.77;;;;;;;10.79;90.87;98499.20;1451383;90;21420;-84
2022/04/09 01:55:33;;;;;;;8.53;5.37;;;;;;;10.79;89.96;98501.03;1449612;90;21331;-87
2022/04/09 01:58:00;;;;;;;11.57;6.17;;;;;;;10.78;90.73;98499.37;1427212;90;21486;-87
2022/04/09 02:00:27;;;;;;;6.90;4.70;;;;;;;10.78;90.62;98503.34;1442951;89;21398;-84
2022/04/09 02:02:54;;;;;;;10.50;5.47;;;;;;;10.76;90.60;98507.53;1446290;90;22469;-86
2022/04/09 02:05:21;;;;;;;7.80;5.33;;;;;;;10.74;91.92;98508.22;1442610;90;21375;-86
2022/04/09 02:07:48;;;;;;;9.93;4.90;;;;;;;10.71;92.44;98512.58;1444458;90;21405;-89
2022/04/09 02:10:17;;;;;;;10.60;5.93;;;;;;;10.70;92.03;98510.93;1449523;90;21368;-85
2022/04/09 02:12:45;;;;;;;13.17;6.17;;;;;;;10.67;92.76;98515.28;1458916;90;22483;-86
2022/04/09 02:15:16;;;;;;;9.87;5.73;;;;;;;10.62;93.53;98525.66;1451564;90;21317;-87
2022/04/09 02:17:44;;;;;;;;;;;;;;;10.61;93.99;98527.97;1445079;90;21442;-89
2022/04/09 02:20:12;;;;;;;8.87;4.87;;;;;;;10.57;94.74;98534.67;1447943;89;20334;-89
2022/04/09 02:22:45;;;;;;;10.40;6.07;;;;;;;10.54;94.60;98535.88;1436359;90;21362;-87
2022/04/09 02:25:15;;;;;;;9.47;4.93;;;;;;;10.54;95.17;98533.74;1446329;90;21339;-87
2022/04/09 02:27:43;;;;;;;8.08;5.28;;;;;;;10.52;95.29;98537.08;1446263;89;21331;-88
2022/04/09 02:30:11;;;;;;;8.83;5.57;;;;;;;10.50;94.31;98530.67;1444359;90;22202;-87
2022/04/09 02:32:51;;;;;;;9.10;4.87;;;;;;;10.50;94.14;98535.13;1447748;90;21435;-87
2022/04/09 02:35:19;;;;;;;10.37;5.70;;;;;;;10.48;94.74;98528.72;1446307;90;22513;-89
2022/04/09 02:37:46;;;;;;;12.27;5.63;;;;;;;10.47;94.46;98527.58;1459648;90;21419;-88
2022/04/09 02:40:13;;;;;;;5.87;3.77;;;;;;;10.48;93.86;98523.94;1451278;90;21287;-89
2022/04/09 02:42:42;;;;;;;6.53;4.30;;;;;;;10.44;94.82;98526.64;1456932;90;21346;-88
2022/04/09 02:45:11;;;;;;;7.10;4.23;;;;;;;10.43;94.74;98526.34;1446593;90;21405;-89
2022/04/09 02:47:40;;;;;;;6.63;3.87;;;;;;;10.41;94.21;98515.13;1441004;89;21521;-87
2022/04/09 02:50:09;;;;;;;6.47;4.20;;;;;;;10.39;94.06;98512.19;1458197;89;21485;-87
2022/04/09 02:52:40;;;;;;;5.90;3.50;;;;;;;10.39;93.17;98509.54;1457418;89;21382;-88
2022/04/09 02:55:08;;;;;;;7.20;3.80;;;;;;;10.37;93.32;98512.88;1460182;88;21522;-86
2022/04/09 02:57:37;;;;;;;6.03;3.67;;;;;;;10.35;92.90;98518.84;1469518;88;21508;-87
2022/04/09 03:00:11;;;;;;;7.53;3.63;;;;;;;10.33;92.27;98516.92;1458878;89;21380;-88
2022/04/09 03:02:41;;;;;;;7.93;4.07;;;;;;;10.33;91.92;98518.75;1459694;89;21411;-87
2022/04/09 03:05:10;;;;;;;6.03;3.33;;;;;;;10.30;92.22;98527.89;1464917;89;21330;-87
2022/04/09 03:07:37;;;;;;;6.87;4.20;;;;;;;10.29;92.55;98525.42;1461329;89;23270;-87
2022/04/09 03:10:05;;;;;;;5.90;3.67;;;;;;;10.27;93.22;98525.62;1448683;89;21411;-88
2022/04/09 03:12:32;;;;;;;5.47;4.03;;;;;;;10.29;92.28;98515.66;1467445;89;21501;-90
2022/04/09 03:14:59;;;;;;;7.73;4.50;;;;;;;10.28;93.46;98511.39;1452765;89;21449;-89
2022/04/09 03:17:26;;;;;;;9.93;4.80;;;;;;;10.31;92.93;98507.03;1467431;89;21367;-90
2022/04/09 03:19:54;;;;;;;7.93;4.83;;;;;;;10.33;92.88;98502.89;1463231;89;21404;-90
2022/04/09 03:22:22;;;;;;;8.17;4.57;;;;;;;10.35;92.94;98514.07;1456310;89;21396;-89
2022/04/09 03:24:49;;;;;;;6.17;4.60;;;;;;;10.36;93.61;98545.63;1462391;89;22424;-89
2022/04/09 03:27:16;;;;;;;8.33;5.60;;;;;;;10.41;93.46;98555.61;1455727;89;21958;-88
2022/04/09 03:29:43;;;;;;;7.57;5.20;;;;;;;10.44;93.22;98575.05;1456919;89;21345;-89
2022/04/09 03:32:10;;;;;;;10.33;6.03;;;;;;;10.45;93.41;98574.58;1458927;89;21308;-88
2022/04/09 03:34:38;;;;;;;14.87;7.17;;;;;;;10.48;94.25;98590.87;1466166;89;21375;-87
2022/04/09 03:37:05;;;;;;;8.50;5.33;;;;;;;10.52;94.03;98586.01;1455369;89;21503;-87
2022/04/09 03:39:32;;;;;;;8.23;5.43;;;;;;;10.55;93.99;98582.47;1459739;89;21426;-87
2022/04/09 03:41:59;;;;;;;11.57;6.03;;;;;;;10.58;94.03;98582.59;1461517;89;21375;-87
2022/04/09 03:44:26;;;;;;;8.80;5.13;;;;;;;10.60;93.60;98567.35;1456824;89;21323;-88
2022/04/09 03:47:03;;;;;;;9.20;5.03;;;;;;;10.62;93.35;98549.47;1457114;89;21552;-90
2022/04/09 03:49:31;;;;;;;11.07;5.60;;;;;;;10.64;93.21;98560.66;1455827;89;23241;-88
2022/04/09 03:51:59;;;;;;;8.73;4.27;;;;;;;10.65;93.33;98560.98;1455407;89;21426;-88
2022/04/09 03:54:26;;;;;;;9.23;4.70;;;;;;;10.68;93.39;98549.20;1464354;89;21345;-87
2022/04/09 03:56:54;;;;;;;6.97;4.13;;;;;;;10.70;93.08;98573.10;1449222;89;22225;-88
2022/04/09 03:59:21;;;;;;;8.90;3.87;;;;;;;10.76;92.03;98580.77;1463785;89;21471;-89
2022/04/09 04:01:49;;;;;;;10.77;3.73;;;;;;;10.75;92.14;98560.12;1461998;89;22351;-89
2022/04/09 04:04:16;;;;;;;8.67;4.63;;;;;;;10.76;91.56;98585.59;1457428;89;21412;-88
2022/04/09 04:06:43;;;;;;;7.57;3.80;;;;;;;10.82;91.08;98609.95;1460379;89;22299;-89
2022/04/09 04:09:12;;;;;;;4.97;3.63;;;;;;;10.84;90.63;98584.59;1457982;89;21323;-88
2022/04/09 04:11:39;;;;;;;7.23;3.97;;;;;;;10.84;90.50;98589.38;1460608;89;21390;-89
2022/04/09 04:14:06;;;;;;;8.53;4.00;;;;;;;10.84;90.22;98601.80;1462047;89;21368;-88
2022/04/09 04:16:33;;;;;;;6.90;3.20;;;;;;;10.86;90.08;98568.54;1450391;89;21352;-88
2022/04/09 04:19:00;;;;;;;4.40;2.30;;;;;;;10.89;89.81;98521.83;1451730;89;21448;-87
2022/04/09 04:21:28;;;;;;;4.77;2.53;;;;;;;10.91;89.77;98505.26;1454637;89;23319;-87
2022/04/09 04:23:54;;;;;;;4.23;2.73;;;;;;;10.89;90.22;98619.25;1455041;89;21374;-87
2022/04/09 04:26:22;;;;;;;4.87;3.10;;;;;;;10.92;89.80;98617.53;1458531;89;22344;-88
2022/04/09 04:28:49;;;;;;;4.47;2.83;;;;;;;10.94;89.76;98602.80;1457705;89;21381;-86
2022/04/09 04:31:18;;;;;;;4.20;2.67;;;;;;;10.99;89.50;98584.48;1464088;89;21493;-87
2022/04/09 04:33:46;;;;;;;4.40;2.93;;;;;;;10.97;90.03;98596.60;1461388;89;21471;-87
2022/04/09 04:36:13;;;;;;;5.07;2.87;;;;;;;11.01;89.85;98583.78;1464621;89;21611;-88
2022/04/09 04:38:40;;;;;;;9.33;4.00;;;;;;;11.02;89.92;98588.09;1462535;89;21397;-88
2022/04/09 04:41:07;;;;;;;4.17;2.27;;;;;;;11.06;89.45;98595.94;1453010;89;21345;-88
2022/04/09 04:43:35;;;;;;;5.87;3.07;;;;;;;11.08;89.55;98579.36;1462432;89;21426;-90
2022/04/09 04:46:02;;;;;;;4.97;2.90;;;;;;;11.10;89.64;98577.31;1453514;89;21396;-88
2022/04/09 04:48:29;;;;;;;8.13;2.73;;;;;;;11.07;89.86;98549.91;1441899;89;21427;-89
2022/04/09 04:50:57;;;;;;;9.37;3.57;;;;;;;11.12;89.41;98524.99;1451450;89;21867;-87
2022/04/09 04:53:24;;;;;;;3.67;2.50;;;;;;;11.14;89.15;98523.48;1465191;89;21418;-87
2022/04/09 04:55:51;;;;;;;5.83;2.93;;;;;;;11.14;89.10;98487.23;1465665;89;21456;-86
2022/04/09 04:58:19;;;;;;;6.07;2.00;;;;;;;11.17;88.71;98518.60;1461803;89;21643;-88
2022/04/09 05:00:46;;;;;;;6.70;2.60;;;;;;;11.21;88.92;98527.77;1461836;89;21848;-87
2022/04/09 05:03:13;;;;;;;4.10;2.77;;;;;;;11.26;88.40;98528.52;1471093;89;21492;-87
2022/04/09 05:05:40;;;;;;;5.53;3.57;;;;;;;11.26;87.91;98545.21;1458870;89;21375;-87
2022/04/09 05:08:09;;;;;;;5.23;2.83;;;;;;;11.32;86.96;98558.69;1456323;89;21426;-87
2022/04/09 05:10:36;;;;;;;4.43;2.67;;;;;;;11.38;85.98;98569.80;1463877;89;21551;-88
2022/04/09 05:13:03;;;;;;;6.63;2.63;;;;;;;11.45;85.45;98619.64;1459730;89;21411;-87
2022/04/09 05:15:31;;;;;;;7.57;3.10;;;;;;;11.51;85.37;98666.05;1459950;89;21426;-88
2022/04/09 05:18:03;;;;;;;8.00;2.63;;;;;;;11.55;85.44;98671.77;1458710;89;21374;-87
2022/04/09 05:20:30;;;;;;;5.17;2.73;;;;;;;11.59;85.16;98674.32;1466697;89;21405;-88
2022/04/09 05:22:57;;;;;;;8.10;2.77;;;;;;;11.62;84.80;98669.95;1462655;89;21523;-89
2022/04/09 05:25:31;;;;;;;3.33;2.63;;;;;;;11.66;84.70;98667.75;1456714;89;21374;-89
2022/04/09 05:27:53;;;;;;;6.53;3.13;;;;;;;11.67;84.62;98674.16;1459986;89;21404;-89
2022/04/09 05:30:20;;;;;;;6.37;4.07;;;;;;;11.66;84.73;98677.84;1466953;89;21988;-89
2022/04/09 05:32:47;;;;;;;5.10;2.63;;;;;;;11.69;84.79;98678.77;1455876;89;22386;-88
2022/04/09 05:35:16;;;;;;;12.47;3.27;;;;;;;11.71;84.65;98688.67;1467223;89;21374;-88
2022/04/09 05:37:46;;;;;;;6.90;3.57;;;;;;;11.73;84.61;98693.75;1460296;89;21544;-89
2022/04/09 05:40:14;;;;;;;8.25;3.47;;;;;;;11.73;84.92;98693.24;1455681;89;21412;-88
2022/04/09 05:42:41;;;;;;;6.20;3.00;;;;;;;11.72;84.85;98688.97;1453352;89;21375;-88
2022/04/09 05:45:12;;;;;;;4.70;2.17;;;;;;;11.72;85.54;98678.37;1458013;89;21433;-88
2022/04/09 05:47:44;;;;;;;4.37;2.27;;;;;;;11.70;85.16;98674.28;1455092;89;22027;-89
2022/04/09 05:50:12;;;;;;;4.27;2.40;;;;;;;11.70;85.40;98675.09;1468999;89;21381;-89
2022/04/09 05:52:41;;;;;;;7.00;2.13;;;;;;;11.68;85.78;98684.25;1456071;89;21382;-88
2022/04/09 05:55:09;;;;;;;4.83;2.13;;;;;;;11.68;85.38;98675.81;1458061;89;21390;-88
2022/04/09 05:57:36;;;;;;;3.70;2.47;;;;;;;11.64;85.66;98654.69;1450426;89;21426;-88
2022/04/09 06:00:06;;;;;;;3.30;1.97;;;;;;;11.56;85.52;98656.69;1460077;89;21374;-88
2022/04/09 06:02:35;;;;;;;5.03;1.82;;;;;;;11.50;85.01;98614.58;1465723;89;21374;-90
2022/04/09 06:05:02;;;;;;;4.53;1.93;;;;;;;11.46;86.57;98604.08;1464464;89;22810;-89
2022/04/09 06:07:30;;;;;;;5.93;2.77;;;;;;;11.41;86.40;98581.33;1456315;89;21492;-87
2022/04/09 06:09:59;;;;;;;4.17;2.00;;;;;;;11.37;86.72;98592.84;1467192;89;21396;-89
2022/04/09 06:12:26;;;;;;;4.33;1.50;;;;;;;11.33;86.28;98584.95;1461446;89;21991;-88
2022/04/09 06:14:53;;;;;;;2.33;1.40;;;;;;;11.32;86.27;98599.73;1462605;89;22371;-88
2022/04/09 06:17:19;;;;;;;5.03;2.23;;;;;;;11.28;87.31;98601.45;1465362;89;21375;-87
2022/04/09 06:19:47;;;;;;;6.57;2.07;;;;;;;11.29;86.75;98611.02;1456226;89;21365;-89
2022/04/09 06:22:14;;;;;;;5.37;1.80;;;;;;;11.27;86.81;98615.69;1436306;89;21596;-90
2022/04/09 06:24:41;;;;;;;3.33;2.03;;;;;;;11.28;86.97;98630.59;1461414;89;21315;-89
2022/04/09 06:27:13;;;;;;;2.20;1.10;;;;;;;11.32;86.79;98628.87;1455803;89;21545;-90
2022/04/09 06:29:40;;;;;;;3.27;1.20;;;;;;;11.29;87.26;98642.80;1469527;89;22306;-89
2022/04/09 06:32:07;;;;;;;4.77;1.60;;;;;;;11.25;86.01;98648.19;1460391;89;21411;-89
2022/04/09 06:34:34;;;;;;;6.87;1.70;;;;;;;11.28;86.57;98642.50;1455883;89;21478;-87
2022/04/09 06:37:01;;;;;;;3.37;1.57;;;;;;;11.21;86.98;98644.79;1450352;89;21323;-88
2022/04/09 06:39:28;;;;;;;1.53;1.20;;;;;;;11.18;86.90;98644.67;1465107;89;21939;-89
2022/04/09 06:41:55;;;;;;;7.57;1.40;;;;;;;11.21;87.14;98643.47;1456520;89;21365;-90
2022/04/09 06:44:24;;;;;;;2.50;1.50;;;;;;;11.19;87.34;98654.27;1464479;89;21352;-88
2022/04/09 06:46:51;;;;;;;2.53;1.20;;;;;;;11.18;87.27;98641.21;1456445;89;21323;-88
2022/04/09 06:49:18;;;;;;;1.40;1.07;;;;;;;11.14;87.40;98631.52;1447877;89;21449;-90
2022/04/09 06:51:47;;;;;;;2.77;1.37;;;;;;;11.12;87.50;98634.86;1446837;90;21501;-88
2022/04/09 06:54:14;;;;;;;2.27;0.73;;;;;;;11.11;87.17;98627.95;1461275;90;21375;-88
2022/04/09 06:56:44;;;;;;;3.37;1.80;;;;;;;11.09;87.06;98610.10;1450755;90;22329;-89
2022/04/09 06:59:10;;;;;;;2.47;1.13;;;;;;;11.03;87.44;98602.95;1438895;90;22278;-90
2022/04/09 07:01:37;;;;;;;5.50;1.37;;;;;;;10.97;87.32;98591.81;1444134;90;21486;-90
2022/04/09 07:04:05;;;;;;;8.17;2.33;;;;;;;10.97;87.51;98599.76;1439122;90;22559;-86
2022/04/09 07:06:31;;;;;;;6.07;1.30;;;;;;;10.97;87.42;98600.57;1448997;90;21316;-86
2022/04/09 07:08:58;;;;;;;2.33;1.30;;;;;;;11.01;87.02;98607.61;1435633;90;21412;-87
2022/04/09 07:11:26;;;;;;;6.10;1.20;;;;;;;11.04;86.68;98608.54;1430969;90;22035;-87
2022/04/09 07:13:53;;;;;;;2.50;1.40;;;;;;;11.09;86.70;98608.78;1448969;90;21375;-87
2022/04/09 07:16:22;;;;;;;6.10;1.20;;;;;;;11.10;86.51;98605.11;1448359;90;21427;-86
2022/04/09 07:18:49;;;;;;;2.90;1.47;;;;;;;11.12;86.78;98599.13;1444032;90;21613;-89
2022/04/09 07:21:16;;;;;;;3.37;1.60;;;;;;;11.08;86.80;98595.24;1443338;90;21473;-87
2022/04/09 07:23:43;;;;;;;1.50;0.80;;;;;;;11.05;87.07;98587.70;1442187;90;21604;-90
2022/04/09 07:26:10;;;;;;;1.30;0.60;;;;;;;11.07;87.26;98573.73;1447536;90;21405;-86
2022/04/09 07:28:37;;;;;;;2.57;0.80;;;;;;;11.03;87.49;98569.86;1451732;90;21383;-83
2022/04/09 07:31:04;;;;;;;5.10;0.67;;;;;;;10.99;87.93;98573.89;1450154;90;21375;-82
2022/04/09 07:33:31;;;;;;;3.93;0.77;;;;;;;10.99;87.45;98581.83;1454210;90;22334;-86
2022/04/09 07:35:58;;;;;;;1.93;0.90;;;;;;;10.97;87.48;98593.14;1439809;90;21401;-86
2022/04/09 07:38:28;;;;;;;1.47;0.90;;;;;;;11.01;87.32;98591.73;1421033;91;22279;-89
2022/04/09 07:40:55;;;;;;;4.00;1.07;;;;;;;10.99;86.97;98600.36;1427733;91;22405;-90
2022/04/09 07:43:22;;;;;;;3.17;0.97;;;;;;;10.97;87.16;98599.25;1426514;90;21335;-88
2022/04/09 07:45:49;;;;;;;2.33;1.27;;;;;;;11.03;88.22;98612.21;1431666;91;21402;-90
2022/04/09 07:48:16;;;;;;;2.80;1.30;;;;;;;11.05;87.84;98600.93;1429790;90;21475;-90
2022/04/09 07:50:43;;;;;;;3.47;1.10;;;;;;;11.07;87.41;98589.62;1440189;90;21379;-89
2022/04/09 07:53:19;;;;;;;1.90;1.03;;;;;;;11.09;88.09;98569.06;1434510;90;21485;-89
2022/04/09 07:55:46;;;;;;;2.30;1.27;;;;;;;11.13;87.96;98571.62;1440888;90;21486;-80
2022/04/09 07:58:14;;;;;;;2.33;1.20;;;;;;;11.18;88.36;98575.02;1436663;90;21448;-80
2022/04/09 08:00:44;;;;;;;5.60;1.10;;;;;;;11.22;87.99;98556.38;1441672;90;21463;-80
2022/04/09 08:03:10;;;;;;;2.97;1.07;;;;;;;11.26;87.58;98558.97;1432081;91;21463;-81
2022/04/09 08:05:38;;;;;;;3.97;1.60;;;;;;;11.29;87.13;98566.52;1434374;91;21500;-80
2022/04/09 08:08:07;;;;;;;2.07;1.20;;;;;;;11.37;87.50;98577.45;1433841;91;21383;-80
2022/04/09 08:10:35;;;;;;;1.80;1.10;;;;;;;11.39;86.83;98575.41;1442827;90;22030;-81
2022/04/09 08:13:02;;;;;;;1.60;0.90;;;;;;;11.42;85.77;98589.09;1433542;90;22402;-81
2022/04/09 08:15:29;;;;;;;1.80;1.00;;;;;;;11.43;85.96;98588.58;1446850;90;21419;-81
2022/04/09 08:17:57;;;;;;;1.10;0.80;;;;;;;11.43;85.12;98589.39;1439026;89;21458;-82
2022/04/09 08:20:24;;;;;;;3.67;0.80;;;;;;;11.49;85.01;98584.63;1431129;90;21348;-81
2022/04/09 08:22:51;;;;;;;3.90;1.23;;;;;;;11.54;83.65;98602.58;1428584;90;21378;-82
2022/04/09 08:25:18;;;;;;;2.73;1.00;;;;;;;11.57;82.55;98602.70;1445128;90;22310;-81
2022/04/09 08:27:49;;;;;;;2.03;1.43;;;;;;;11.60;83.12;98617.69;1436573;90;21320;-81
2022/04/09 08:30:15;;;;;;;1.97;0.70;;;;;;;11.67;82.72;98614.53;1447097;90;21983;-81
2022/04/09 08:32:42;;;;;;;3.93;1.73;;;;;;;11.72;82.45;98619.25;1445406;90;22557;-80
2022/04/09 08:35:09;;;;;;;2.83;1.50;;;;;;;11.83;82.25;98630.61;1440110;90;21358;-81
2022/04/09 08:37:41;;;;;;;2.47;1.47;;;;;;;11.90;81.61;98632.78;1433623;90;21421;-81
2022/04/09 08:40:14;;;;;;;5.33;1.63;;;;;;;12.02;81.72;98642.30;1428211;90;21907;-80
2022/04/09 08:42:42;;;;;;;3.90;1.70;;;;;;;12.14;81.46;98647.34;1435177;89;21335;-81
2022/04/09 08:45:10;;;;;;;3.07;1.70;;;;;;;12.22;81.23;98656.11;1418916;90;22347;-83
2022/04/09 08:47:38;;;;;;;2.63;1.43;;;;;;;12.27;80.57;98654.49;1428827;90;21305;-80
2022/04/09 08:50:10;;;;;;;2.50;1.30;;;;;;;12.32;80.87;98668.48;1417857;90;21439;-80
2022/04/09 08:52:44;;;;;;;3.87;1.10;;;;;;;12.32;80.13;98664.51;1420471;91;22252;-80
2022/04/09 08:55:15;;;;;;;1.93;1.07;;;;;;;12.36;80.08;98665.73;1435944;89;21341;-82
2022/04/09 08:57:43;;;;;;;5.15;1.07;;;;;;;12.38;79.85;98666.35;1441639;90;21386;-82
2022/04/09 09:00:13;;;;;;;1.90;1.27;;;;;;;12.41;80.67;98665.94;1439339;90;21423;-81
2022/04/09 09:02:51;;;;;;;2.40;1.62;;;;;;;12.48;80.32;98674.72;1363927;90;22340;-83
2022/04/09 09:05:39;;;;;;;1.87;1.00;;;;;;;12.44;80.20;98664.21;1482375;90;21364;-81
2022/04/09 09:08:08;;;;;;;2.73;1.10;;;;;;;12.49;80.24;98667.08;1401854;90;21370;-81
2022/04/09 09:10:37;;;;;;;4.63;1.10;;;;;;;12.43;80.65;98670.55;1439769;90;21371;-81
2022/04/09 09:13:11;;;;;;;2.30;1.10;;;;;;;12.42;80.62;98667.56;1437956;90;21622;-81
2022/04/09 09:15:48;;;;;;;6.13;2.00;;;;;;;12.35;79.88;98665.43;1434883;90;21371;-81
2022/04/09 09:18:25;;;;;;;4.93;2.73;;;;;;;12.40;80.62;98676.27;1482887;90;21408;-81
2022/04/09 09:20:57;;;;;;;2.90;1.37;;;;;;;12.42;81.00;98683.48;1407314;90;21342;-81
2022/04/09 09:23:31;;;;;;;1.23;1.03;;;;;;;12.43;80.69;98693.10;1520440;90;21217;-82
2022/04/09 09:26:01;;;;;;;1.73;1.00;;;;;;;12.43;81.22;98687.80;1499648;90;21202;-81
2022/04/09 09:28:30;;;;;;;2.80;1.30;;;;;;;12.44;81.16;98692.07;1364530;90;21290;-81
2022/04/09 09:30:59;;;;;;;3.20;1.47;;;;;;;12.51;81.14;98690.23;1520311;90;21386;-81
2022/04/09 09:33:28;;;;;;;3.00;1.80;;;;;;;12.53;80.66;98685.55;1417685;90;21305;-81
2022/04/09 09:35:59;;;;;;;2.97;1.83;;;;;;;12.56;80.42;98695.75;1365688;90;21988;-81
2022/04/09 09:38:28;;;;;;;2.90;1.47;;;;;;;12.59;79.87;98691.36;1416774;90;21515;-80
2022/04/09 09:40:57;;;;;;;2.53;1.33;;;;;;;12.65;79.57;98694.53;1364743;90;21305;-80
2022/04/09 09:43:26;;;;;;;5.90;1.50;;;;;;;12.68;79.37;98703.11;1498846;90;21312;-80
2022/04/09 09:45:55;;;;;;;3.30;1.33;;;;;;;12.75;78.31;98701.30;1413792;90;22171;-81
2022/04/09 09:48:35;;;;;;;4.60;1.70;;;;;;;12.77;77.99;98705.36;1365546;90;21261;-81
2022/04/09 09:50:58;;;;;;;2.23;1.83;;;;;;;12.79;77.68;98713.13;1412761;89;21432;-80
2022/04/09 09:53:33;;;;;;;3.93;2.07;;;;;;;12.81;77.05;98708.45;1375573;89;21343;-81
2022/04/09 09:56:02;;;;;;;2.37;1.57;;;;;;;12.84;77.30;98713.34;1373981;89;21284;-81
2022/04/09 09:58:31;;;;;;;2.90;1.43;;;;;;;12.84;76.58;98718.66;1375343;89;22688;-81
2022/04/09 10:00:59;;;;;;;4.23;2.17;;;;;;;12.87;77.00;98719.57;1427915;90;23335;-81
2022/04/09 10:03:26;;;;;;;4.60;2.50;;;;;;;12.92;77.55;98733.55;1454304;89;21490;-81
2022/04/09 10:05:53;;;;;;;4.30;2.80;;;;;;;12.90;77.72;98751.54;1455489;89;22252;-80
2022/04/09 10:08:21;;;;;;;4.87;4.07;;;;;;;12.85;77.74;98774.19;1455485;89;21483;-81
2022/04/09 10:10:50;;;;;;;2.87;1.80;;;;;;;12.77;78.38;98784.19;1448129;90;21430;-81
2022/04/09 10:13:23;;;;;;;4.27;1.30;;;;;;;12.70;79.18;98783.37;1446712;90;21312;-81
2022/04/09 10:15:52;;;;;;;2.53;1.40;;;;;;;12.61;80.43;98784.88;1467622;90;21291;-81
2022/04/09 10:18:23;;;;;;;2.23;1.20;;;;;;;12.53;81.38;98786.89;1447291;89;21396;-81
2022/04/09 10:21:01;;;;;;;2.45;1.25;;;;;;;12.48;82.95;98790.14;1526776;90;21298;-81
2022/04/09 10:23:32;;;;;;;3.97;1.40;;;;;;;12.50;81.76;98798.72;1532371;90;21404;-81
2022/04/09 10:26:03;;;;;;;3.17;1.50;;;;;;;12.44;83.69;98794.22;1513821;89;21484;-80
2022/04/09 10:28:38;;;;;;;4.27;2.30;;;;;;;12.46;83.43;98790.87;1453573;90;21830;-81
2022/04/09 10:31:32;;;;;;;5.30;3.10;;;;;;;12.48;83.61;98803.41;1441729;90;21364;-81
2022/04/09 10:34:02;;;;;;;3.30;1.80;;;;;;;12.49;83.59;98810.37;1451765;90;21380;-81
2022/04/09 10:36:51;;;;;;;1.92;1.42;;;;;;;12.50;84.94;98815.16;1456677;90;21357;-80
2022/04/09 10:39:39;;;;;;;1.60;1.20;;;;;;;12.47;84.15;98821.68;1437585;90;21312;-81
2022/04/09 10:42:07;;;;;;;2.33;0.87;;;;;;;12.36;84.87;98818.27;1531376;89;21327;-80
2022/04/09 10:44:52;;;;;;;3.10;1.37;;;;;;;12.28;85.01;98818.44;1435974;89;21354;-81
2022/04/09 10:47:19;;;;;;;1.97;1.10;;;;;;;12.24;85.48;98821.19;1529642;89;21313;-80
2022/04/09 10:50:07;;;;;;;1.33;1.10;;;;;;;12.10;87.37;98827.73;1482157;89;21368;-81
2022/04/09 10:52:34;;;;;;;2.43;0.60;;;;;;;11.96;87.06;98832.66;1534299;89;21273;-81
2022/04/09 10:55:12;;;;;;;0.87;0.73;;;;;;;11.89;88.10;98843.23;1423626;89;21282;-81
2022/04/09 10:57:44;;;;;;;2.90;1.40;;;;;;;11.71;91.09;98864.09;1529549;89;21244;-82
2022/04/09 11:00:29;;;;;;;8.93;1.37;;;;;;;11.15;87.39;98867.48;1437859;89;23687;-82
2022/04/09 11:03:14;;;;;;;1.23;0.60;;;;;;;10.78;87.96;98868.02;1438260;89;21391;-83
2022/04/09 11:05:43;;;;;;;0.43;0.40;;;;;;;10.49;88.37;98870.22;1529666;89;21254;-83
2022/04/09 11:08:17;;;;;;;2.20;0.50;;;;;;;10.29;90.22;98867.33;1476059;89;22726;-83
2022/04/09 11:10:44;;;;;;;2.43;1.40;;;;;;;10.41;89.90;98872.97;1454689;89;21518;-82
2022/04/09 11:13:15;;;;;;;7.37;4.23;;;;;;;10.45;88.98;98870.80;1445266;89;21376;-83
2022/04/09 11:15:45;;;;;;;3.47;1.90;;;;;;;10.46;90.53;98862.66;1446360;89;21369;-82
2022/04/09 11:18:12;;;;;;;2.90;1.30;;;;;;;10.54;90.17;98864.39;1425738;89;21419;-83
2022/04/09 11:20:39;;;;;;;1.77;1.00;;;;;;;10.63;89.78;98867.23;1442814;89;21378;-83
2022/04/09 11:23:16;;;;;;;2.07;0.80;;;;;;;10.69;91.50;98862.52;1447621;89;21361;-84
2022/04/09 11:25:46;;;;;;;1.20;0.90;;;;;;;10.75;89.87;98864.92;1453685;89;21567;-82
2022/04/09 11:28:18;;;;;;;2.00;0.80;;;;;;;10.78;90.08;98866.69;1427792;89;21297;-83
2022/04/09 11:31:06;;;;;;;1.63;1.20;;;;;;;10.89;91.21;98863.25;1465206;88;21361;-82
2022/04/09 11:33:33;;;;;;;2.27;1.77;;;;;;;11.01;92.51;98866.52;1444689;89;21390;-82
2022/04/09 11:36:02;;;;;;;0.93;0.57;;;;;;;11.21;91.09;98869.36;1454214;89;22280;-82
2022/04/09 11:38:30;;;;;;;1.45;0.78;;;;;;;11.31;90.73;98862.44;1451816;89;21450;-83
2022/04/09 11:40:57;;;;;;;1.67;0.90;;;;;;;11.18;90.35;98872.39;1449012;89;22285;-83